aviador You're here:

RJOO Decoded Metar

OSAKA in JAPAN
Report Time2014-11-01 02:00:00
UTC Time2014-11-01 03:03:01
Flight Rules vfr VFR
Wind080° at 07 kt
W.Decomp.*RWY 14: 4.2 kt HW 5.6 kt LCW
W.Rank080° ranks 9
Current wind is below 080° avg. (7.2)
Visibility9999 m
Phenomena:N/A
Clouds:Few 008 Hf
Scattered 020 Hf
Broken 040 Hf
Expected CloudBase > 400 ft AGL from Temp-Dew spread
Ceiling4,000 ft
Temp18°C (ISA +3)
Dew Point17°C (94% RH)
AAT17.9°C
QNH1015 hPa
Density Alt604 ft
Elevation49 ft
Report Wrong Elevation
Raw Report
RJOO 010200Z 08007KT 030V110 9999 FEW008 SCT020 BKN040 18/17 Q1015
RMK 1ST008 3CU020 5CU040 A2997=

Flight School in Barcelona

Extra information for RJOO:More info

Metar Taf Metar & Taf Last 4 Metars F.Rules Stats Wind Profile Meteogram Temp Stats Airport Information Weather charts Add Link Nearby VenuesMetar ALERT Operation Metar Decoded Social comments